createdAt,value
2023-04-02T16:45:33.203Z,95779.65
2023-04-02T16:48:26.881Z,95787.89
2023-04-02T16:51:55.170Z,95793.48
2023-04-02T16:54:50.990Z,95793.16
2023-04-02T16:58:00.037Z,95794.13
2023-04-02T17:01:29.235Z,95796.18
2023-04-02T17:04:39.175Z,95798.95
2023-04-02T17:07:29.132Z,95799.62
2023-04-02T17:10:30.432Z,95806.12
2023-04-02T17:13:47.748Z,95807.48
2023-04-02T17:16:46.629Z,95808.48
2023-04-02T17:19:33.466Z,95811.63
2023-04-02T17:22:22.458Z,95815.94
2023-04-02T17:25:21.409Z,95819.83
2023-04-02T17:28:15.278Z,95821.23
2023-04-02T17:31:06.289Z,95824.33
2023-04-02T17:33:53.481Z,95829.95
2023-04-02T17:37:12.273Z,95835.02
2023-04-02T17:40:19.270Z,95838.81
2023-04-02T17:43:11.836Z,95845.20
2023-04-02T17:46:37.986Z,95850.81
2023-04-02T17:49:47.778Z,95853.17
2023-04-02T17:52:43.474Z,95852.51
2023-04-02T17:56:01.157Z,95851.84
2023-04-02T17:58:54.101Z,95855.50
2023-04-02T18:01:51.345Z,95854.77
2023-04-02T18:04:57.925Z,95856.89
2023-04-02T18:08:03.770Z,95864.20
2023-04-02T18:11:13.426Z,95867.59
2023-04-02T18:14:07.011Z,95869.50
2023-04-02T18:16:57.009Z,95868.45
2023-04-02T18:19:54.073Z,95873.75
2023-04-02T18:22:55.364Z,95879.83
2023-04-02T18:26:19.268Z,95877.55
2023-04-02T18:29:43.451Z,95880.13
2023-04-02T18:32:52.016Z,95878.66
2023-04-02T18:36:18.167Z,95880.23
2023-04-02T18:39:32.797Z,95878.28
2023-04-02T18:42:33.553Z,95881.89
2023-04-02T18:45:26.404Z,95881.23
2023-04-02T18:48:29.144Z,95882.79
2023-04-02T18:51:24.096Z,95888.39
2023-04-02T18:54:16.171Z,95887.73
2023-04-02T18:57:11.527Z,95888.13
2023-04-02T19:00:05.598Z,95893.73
2023-04-02T19:03:21.328Z,95896.98
2023-04-02T19:06:23.539Z,95896.51
2023-04-02T19:09:19.012Z,95897.84
2023-04-02T19:12:25.941Z,95895.94
2023-04-02T19:15:18.788Z,95896.88
2023-04-02T19:18:11.032Z,95896.61
2023-04-02T19:21:02.465Z,95897.97
2023-04-02T19:23:56.096Z,95900.65
2023-04-02T19:27:11.804Z,95900.99
2023-04-02T19:30:22.986Z,95906.10
2023-04-02T19:33:35.209Z,95906.30
2023-04-02T19:36:31.328Z,95912.78
2023-04-02T19:39:29.918Z,95914.08
2023-04-02T19:42:31.056Z,95915.70
2023-04-02T19:45:21.051Z,95916.61
2023-04-02T19:48:13.898Z,95916.58
2023-04-02T19:51:00.853Z,95922.05
2023-04-02T19:53:47.628Z,95927.98
2023-04-02T19:56:34.942Z,95932.40
2023-04-02T19:59:21.559Z,95935.58
2023-04-02T20:02:10.825Z,95943.20
2023-04-02T20:04:57.741Z,95951.34
2023-04-02T20:07:44.359Z,95953.52
2023-04-02T20:10:31.447Z,95957.20
2023-04-02T20:13:18.507Z,95959.56
2023-04-02T20:16:06.848Z,95960.97
2023-04-02T20:18:54.051Z,95961.77
2023-04-02T20:21:40.971Z,95963.13
2023-04-02T20:24:27.578Z,95961.80
2023-04-02T20:27:14.272Z,95962.23
2023-04-02T20:30:01.401Z,95964.58
2023-04-02T20:32:48.662Z,95960.54
2023-04-02T20:35:37.834Z,95958.15
2023-04-02T20:38:25.115Z,95956.73
2023-04-02T20:41:12.037Z,95958.19
2023-04-02T20:43:59.147Z,95952.73
2023-04-02T20:46:47.222Z,95954.71
2023-04-02T20:49:34.829Z,95951.70
2023-04-02T20:52:22.204Z,95951.80
2023-04-02T20:55:09.863Z,95951.84
2023-04-02T20:57:57.084Z,95951.95
2023-04-02T21:00:47.490Z,95951.29
2023-04-02T21:03:34.404Z,95949.02
2023-04-02T21:06:23.338Z,95951.05
2023-04-02T21:09:19.811Z,95954.48
2023-04-02T21:12:07.532Z,95956.30
2023-04-02T21:14:59.200Z,95961.51
2023-04-02T21:17:48.457Z,95961.74
2023-04-02T21:20:35.947Z,95959.80
2023-04-02T21:23:22.690Z,95955.31
2023-04-02T21:26:13.867Z,95953.37
2023-04-02T21:29:00.826Z,95956.81
2023-04-02T21:31:47.489Z,95955.20
2023-04-02T21:34:34.502Z,95957.05
2023-04-02T21:37:21.730Z,95958.86
2023-04-02T21:40:09.567Z,95956.71
2023-04-02T21:42:56.168Z,95959.58
2023-04-02T21:45:43.084Z,95961.04
2023-04-02T21:48:31.838Z,95960.05
2023-04-02T21:51:22.082Z,95958.76
2023-04-02T21:54:09.962Z,95960.64
2023-04-02T21:56:56.928Z,95960.60
2023-04-02T21:59:44.210Z,95959.92
2023-04-02T22:02:31.040Z,95957.20
2023-04-02T22:05:18.142Z,95960.62
2023-04-02T22:08:05.770Z,95961.52
2023-04-02T22:10:52.886Z,95959.45
2023-04-02T22:13:41.712Z,95961.02
2023-04-02T22:16:30.397Z,95961.58
2023-04-02T22:19:17.943Z,95956.74
2023-04-02T22:22:04.952Z,95958.41
2023-04-02T22:24:51.846Z,95961.77
2023-04-02T22:27:38.993Z,95963.04
2023-04-02T22:30:30.187Z,95963.16
2023-04-02T22:33:17.815Z,95964.60
2023-04-02T22:36:05.678Z,95966.24
2023-04-02T22:38:53.070Z,95967.02
2023-04-02T22:41:40.610Z,95970.58
2023-04-02T22:44:27.716Z,95966.83
2023-04-02T22:47:14.322Z,95970.05
2023-04-02T22:50:00.938Z,95969.35
2023-04-02T22:52:47.610Z,95970.25
2023-04-02T22:55:34.435Z,95970.53
2023-04-02T22:58:21.686Z,95971.06
2023-04-02T23:01:35.880Z,95976.38
2023-04-02T23:04:23.150Z,95977.82
2023-04-02T23:07:10.101Z,95982.66
2023-04-02T23:09:56.878Z,95986.23
2023-04-02T23:12:43.592Z,95989.61
2023-04-02T23:15:30.655Z,95993.07
2023-04-02T23:18:17.509Z,95994.09
2023-04-02T23:21:06.013Z,95992.72
2023-04-02T23:23:53.290Z,95993.34
2023-04-02T23:26:40.512Z,95992.09
2023-04-02T23:29:27.529Z,95991.95
2023-04-02T23:32:16.300Z,95988.39
2023-04-02T23:35:03.488Z,95991.64
2023-04-02T23:37:50.135Z,95997.25
2023-04-02T23:40:37.653Z,95999.72
2023-04-02T23:43:24.964Z,96001.90
2023-04-02T23:46:12.348Z,95999.79
2023-04-02T23:49:00.754Z,96006.55
2023-04-02T23:51:47.923Z,96011.48
2023-04-02T23:54:34.552Z,96011.45
2023-04-02T23:57:21.707Z,96006.93
